sensor_id;sensor_type;location;lat;lon;timestamp;pressure;altitude;pressure_sealevel;temperature;humidity
47280;BME280;34064;44.942;0.008;2023-04-01T00:01:02;98851.25;;;14.75;59.27
47280;BME280;34064;44.942;0.008;2023-04-01T00:03:30;98839.47;;;14.68;59.44
47280;BME280;34064;44.942;0.008;2023-04-01T00:05:57;98845.78;;;14.66;59.32
47280;BME280;34064;44.942;0.008;2023-04-01T00:08:24;98843.38;;;14.54;59.79
47280;BME280;34064;44.942;0.008;2023-04-01T00:10:51;98846.88;;;14.54;59.75
47280;BME280;34064;44.942;0.008;2023-04-01T00:13:18;98842.78;;;14.50;59.69
47280;BME280;34064;44.942;0.008;2023-04-01T00:15:45;98843.22;;;14.45;59.97
47280;BME280;34064;44.942;0.008;2023-04-01T00:18:12;98840.97;;;14.41;60.08
47280;BME280;34064;44.942;0.008;2023-04-01T00:20:38;98847.75;;;14.35;60.30
47280;BME280;34064;44.942;0.008;2023-04-01T00:23:05;98851.81;;;14.29;60.43
47280;BME280;34064;44.942;0.008;2023-04-01T00:25:32;98858.16;;;14.28;60.60
47280;BME280;34064;44.942;0.008;2023-04-01T00:27:58;98855.31;;;14.30;60.56
47280;BME280;34064;44.942;0.008;2023-04-01T00:30:24;98848.56;;;14.35;60.17
47280;BME280;34064;44.942;0.008;2023-04-01T00:32:54;98844.50;;;14.31;60.38
47280;BME280;34064;44.942;0.008;2023-04-01T00:35:21;98846.03;;;14.24;60.49
47280;BME280;34064;44.942;0.008;2023-04-01T00:37:48;98846.03;;;14.24;60.44
47280;BME280;34064;44.942;0.008;2023-04-01T00:40:31;98840.84;;;14.23;60.51
47280;BME280;34064;44.942;0.008;2023-04-01T00:42:57;98823.53;;;14.27;60.21
47280;BME280;34064;44.942;0.008;2023-04-01T00:47:53;98829.88;;;14.26;60.29
47280;BME280;34064;44.942;0.008;2023-04-01T00:50:22;98831.69;;;14.25;60.25
47280;BME280;34064;44.942;0.008;2023-04-01T00:52:51;98826.50;;;14.24;60.28
47280;BME280;34064;44.942;0.008;2023-04-01T00:55:19;98824.41;;;14.27;60.12
47280;BME280;34064;44.942;0.008;2023-04-01T00:57:49;98826.63;;;14.22;60.37
47280;BME280;34064;44.942;0.008;2023-04-01T01:00:17;98823.28;;;14.20;60.46
47280;BME280;34064;44.942;0.008;2023-04-01T01:02:45;98819.03;;;14.17;60.38
47280;BME280;34064;44.942;0.008;2023-04-01T01:05:14;98817.66;;;14.13;60.47
47280;BME280;34064;44.942;0.008;2023-04-01T01:10:30;98826.06;;;14.18;60.37
47280;BME280;34064;44.942;0.008;2023-04-01T01:13:22;98815.81;;;14.14;60.39
47280;BME280;34064;44.942;0.008;2023-04-01T01:16:04;98827.47;;;14.13;60.33
47280;BME280;34064;44.942;0.008;2023-04-01T01:21:10;98808.66;;;14.14;60.20
47280;BME280;34064;44.942;0.008;2023-04-01T01:29:11;98820.03;;;14.16;60.27
47280;BME280;34064;44.942;0.008;2023-04-01T01:37:42;98815.94;;;14.12;60.22
47280;BME280;34064;44.942;0.008;2023-04-01T01:40:12;98812.16;;;14.15;59.99
47280;BME280;34064;44.942;0.008;2023-04-01T01:42:46;98812.44;;;14.12;60.15
47280;BME280;34064;44.942;0.008;2023-04-01T01:45:16;98812.31;;;14.13;60.29
47280;BME280;34064;44.942;0.008;2023-04-01T01:47:46;98811.16;;;14.16;60.20
47280;BME280;34064;44.942;0.008;2023-04-01T01:50:16;98805.56;;;14.19;60.19
47280;BME280;34064;44.942;0.008;2023-04-01T01:52:42;98810.47;;;14.14;60.61
47280;BME280;34064;44.942;0.008;2023-04-01T01:55:47;98812.88;;;14.17;60.49
47280;BME280;34064;44.942;0.008;2023-04-01T01:58:33;98802.72;;;14.20;60.29
47280;BME280;34064;44.942;0.008;2023-04-01T02:01:09;98799.63;;;14.25;60.42
47280;BME280;34064;44.942;0.008;2023-04-01T02:03:40;98796.00;;;14.26;60.32
47280;BME280;34064;44.942;0.008;2023-04-01T02:06:10;98796.84;;;14.17;60.49
47280;BME280;34064;44.942;0.008;2023-04-01T02:08:54;98798.78;;;14.15;60.69
47280;BME280;34064;44.942;0.008;2023-04-01T02:11:28;98796.84;;;14.17;60.65
47280;BME280;34064;44.942;0.008;2023-04-01T02:14:06;98783.31;;;14.18;60.47
47280;BME280;34064;44.942;0.008;2023-04-01T02:19:11;98792.63;;;14.14;60.73
47280;BME280;34064;44.942;0.008;2023-04-01T02:21:40;98786.41;;;14.14;60.74
47280;BME280;34064;44.942;0.008;2023-04-01T02:24:10;98790.78;;;14.15;60.85
47280;BME280;34064;44.942;0.008;2023-04-01T02:26:38;98786.72;;;14.20;60.86
47280;BME280;34064;44.942;0.008;2023-04-01T02:29:06;98785.88;;;14.20;60.88
47280;BME280;34064;44.942;0.008;2023-04-01T02:31:35;98784.19;;;14.19;61.04
47280;BME280;34064;44.942;0.008;2023-04-01T02:34:04;98781.50;;;14.19;60.96
47280;BME280;34064;44.942;0.008;2023-04-01T02:36:31;98777.56;;;14.23;60.97
47280;BME280;34064;44.942;0.008;2023-04-01T02:38:59;98783.22;;;14.20;61.34
47280;BME280;34064;44.942;0.008;2023-04-01T02:41:28;98781.81;;;14.26;61.01
47280;BME280;34064;44.942;0.008;2023-04-01T02:43:55;98786.84;;;14.29;60.88
47280;BME280;34064;44.942;0.008;2023-04-01T02:46:23;98779.38;;;14.32;60.68
47280;BME280;34064;44.942;0.008;2023-04-01T02:48:49;98782.34;;;14.29;60.93
47280;BME280;34064;44.942;0.008;2023-04-01T02:51:16;98781.66;;;14.27;60.86
47280;BME280;34064;44.942;0.008;2023-04-01T02:53:42;98783.34;;;14.28;60.80
47280;BME280;34064;44.942;0.008;2023-04-01T02:56:08;98768.41;;;14.35;60.26
47280;BME280;34064;44.942;0.008;2023-04-01T02:58:35;98775.72;;;14.33;60.51
47280;BME280;34064;44.942;0.008;2023-04-01T03:01:01;98774.63;;;14.26;60.87
47280;BME280;34064;44.942;0.008;2023-04-01T03:03:28;98767.31;;;14.28;60.57
47280;BME280;34064;44.942;0.008;2023-04-01T03:05:54;98767.31;;;14.28;60.65
47280;BME280;34064;44.942;0.008;2023-04-01T03:08:24;98768.69;;;14.32;60.29
47280;BME280;34064;44.942;0.008;2023-04-01T03:10:51;98757.19;;;14.32;60.43
47280;BME280;34064;44.942;0.008;2023-04-01T03:13:17;98764.31;;;14.31;60.53
47280;BME280;34064;44.942;0.008;2023-04-01T03:15:43;98759.41;;;14.37;60.26
47280;BME280;34064;44.942;0.008;2023-04-01T03:18:10;98768.25;;;14.37;60.06
47280;BME280;34064;44.942;0.008;2023-04-01T03:20:36;98759.69;;;14.33;60.13
47280;BME280;34064;44.942;0.008;2023-04-01T03:23:02;98760.69;;;14.32;60.09
47280;BME280;34064;44.942;0.008;2023-04-01T03:25:29;98760.00;;;14.30;60.04
47280;BME280;34064;44.942;0.008;2023-04-01T03:27:56;98754.50;;;14.32;60.08
47280;BME280;34064;44.942;0.008;2023-04-01T03:30:26;98753.94;;;14.28;60.04
47280;BME280;34064;44.942;0.008;2023-04-01T03:32:52;98756.88;;;14.25;60.17
47280;BME280;34064;44.942;0.008;2023-04-01T03:35:19;98760.28;;;14.27;60.16
47280;BME280;34064;44.942;0.008;2023-04-01T03:37:45;98761.41;;;14.25;59.97
47280;BME280;34064;44.942;0.008;2023-04-01T03:40:12;98758.84;;;14.23;59.99
47280;BME280;34064;44.942;0.008;2023-04-01T03:42:38;98763.94;;;14.26;60.02
47280;BME280;34064;44.942;0.008;2023-04-01T03:45:05;98766.03;;;14.23;60.30
47280;BME280;34064;44.942;0.008;2023-04-01T03:47:32;98754.22;;;14.25;60.02
47280;BME280;34064;44.942;0.008;2023-04-01T03:49:58;98762.38;;;14.24;60.14
47280;BME280;34064;44.942;0.008;2023-04-01T03:52:25;98760.28;;;14.27;60.13
47280;BME280;34064;44.942;0.008;2023-04-01T03:54:51;98760.28;;;14.27;59.96
47280;BME280;34064;44.942;0.008;2023-04-01T03:57:18;98753.78;;;14.30;59.89
47280;BME280;34064;44.942;0.008;2023-04-01T03:59:44;98759.41;;;14.27;60.05
47280;BME280;34064;44.942;0.008;2023-04-01T04:02:10;98751.97;;;14.30;59.69
47280;BME280;34064;44.942;0.008;2023-04-01T04:04:37;98750.41;;;14.28;59.86
47280;BME280;34064;44.942;0.008;2023-04-01T04:07:03;98744.25;;;14.27;59.89
47280;BME280;34064;44.942;0.008;2023-04-01T04:09:32;98737.91;;;14.28;60.02
47280;BME280;34064;44.942;0.008;2023-04-01T04:12:00;98738.31;;;14.33;59.64
47280;BME280;34064;44.942;0.008;2023-04-01T04:14:26;98735.94;;;14.30;59.81
47280;BME280;34064;44.942;0.008;2023-04-01T04:16:53;98737.22;;;14.26;59.91
47280;BME280;34064;44.942;0.008;2023-04-01T04:19:19;98742.28;;;14.29;59.90
47280;BME280;34064;44.942;0.008;2023-04-01T04:21:46;98743.25;;;14.28;59.59
47280;BME280;34064;44.942;0.008;2023-04-01T04:24:12;98746.19;;;14.25;59.90
47280;BME280;34064;44.942;0.008;2023-04-01T04:26:38;98732.44;;;14.20;59.86
47280;BME280;34064;44.942;0.008;2023-04-01T04:29:05;98742.44;;;14.18;59.96
47280;BME280;34064;44.942;0.008;2023-04-01T04:31:31;98738.91;;;14.17;59.96
47280;BME280;34064;44.942;0.008;2023-04-01T04:34:00;98742.16;;;14.11;60.04
47280;BME280;34064;44.942;0.008;2023-04-01T04:36:27;98744.81;;;14.11;60.09
47280;BME280;34064;44.942;0.008;2023-04-01T04:38:53;98751.28;;;14.09;59.97
47280;BME280;34064;44.942;0.008;2023-04-01T04:41:20;98743.69;;;14.14;59.86
47280;BME280;34064;44.942;0.008;2023-04-01T04:43:55;98744.81;;;14.11;59.90
47280;BME280;34064;44.942;0.008;2023-04-01T04:46:22;98748.34;;;14.12;59.96
47280;BME280;34064;44.942;0.008;2023-04-01T04:48:49;98750.16;;;14.11;60.01
47280;BME280;34064;44.942;0.008;2023-04-01T04:51:17;98751.28;;;14.09;60.22
47280;BME280;34064;44.942;0.008;2023-04-01T04:53:43;98745.53;;;14.13;60.15
47280;BME280;34064;44.942;0.008;2023-04-01T04:56:10;98747.06;;;14.16;59.95
47280;BME280;34064;44.942;0.008;2023-04-01T04:58:38;98743.41;;;14.17;60.29
47280;BME280;34064;44.942;0.008;2023-04-01T05:01:12;98749.56;;;14.17;60.22
47280;BME280;34064;44.942;0.008;2023-04-01T05:03:40;98756.06;;;14.15;60.18
47280;BME280;34064;44.942;0.008;2023-04-01T05:06:07;98756.91;;;14.15;61.03
47280;BME280;34064;44.942;0.008;2023-04-01T05:08:34;98763.66;;;14.19;61.22
47280;BME280;34064;44.942;0.008;2023-04-01T05:11:02;98749.72;;;14.16;61.30
47280;BME280;34064;44.942;0.008;2023-04-01T05:13:29;98747.34;;;14.13;61.52
47280;BME280;34064;44.942;0.008;2023-04-01T05:15:55;98761.13;;;13.98;61.81
47280;BME280;34064;44.942;0.008;2023-04-01T05:18:22;98746.50;;;13.93;61.84
47280;BME280;34064;44.942;0.008;2023-04-01T05:20:53;98758.16;;;13.92;61.70
47280;BME280;34064;44.942;0.008;2023-04-01T05:23:22;98769.53;;;13.84;61.78
47280;BME280;34064;44.942;0.008;2023-04-01T05:25:49;98764.75;;;13.78;61.88
47280;BME280;34064;44.942;0.008;2023-04-01T05:28:19;98768.41;;;13.77;62.04
47280;BME280;34064;44.942;0.008;2023-04-01T05:30:47;98769.69;;;13.72;62.11
47280;BME280;34064;44.942;0.008;2023-04-01T05:33:13;98785.41;;;13.66;62.32
47280;BME280;34064;44.942;0.008;2023-04-01T05:35:41;98778.22;;;13.66;62.27
47280;BME280;34064;44.942;0.008;2023-04-01T05:38:07;98785.56;;;13.64;62.20
47280;BME280;34064;44.942;0.008;2023-04-01T05:40:34;98786.53;;;13.63;62.45
47280;BME280;34064;44.942;0.008;2023-04-01T05:43:00;98789.31;;;13.62;62.53
47280;BME280;34064;44.942;0.008;2023-04-01T05:45:27;98790.03;;;13.64;62.46
47280;BME280;34064;44.942;0.008;2023-04-01T05:47:54;98792.56;;;13.65;62.38
47280;BME280;34064;44.942;0.008;2023-04-01T05:50:20;98790.91;;;13.64;62.58
47280;BME280;34064;44.942;0.008;2023-04-01T05:52:47;98802.81;;;13.70;62.52
47280;BME280;34064;44.942;0.008;2023-04-01T05:55:13;98796.25;;;13.74;62.55
47280;BME280;34064;44.942;0.008;2023-04-01T05:57:39;98800.75;;;13.73;62.78
47280;BME280;34064;44.942;0.008;2023-04-01T06:00:06;98795.41;;;13.73;62.63
47280;BME280;34064;44.942;0.008;2023-04-01T06:02:33;98797.50;;;13.80;62.57
47280;BME280;34064;44.942;0.008;2023-04-01T06:05:20;98798.22;;;13.82;62.89
47280;BME280;34064;44.942;0.008;2023-04-01T06:07:47;98796.13;;;13.85;63.02
47280;BME280;34064;44.942;0.008;2023-04-01T06:10:19;98789.25;;;13.83;62.92
47280;BME280;34064;44.942;0.008;2023-04-01T06:35:48;98763.94;;;13.97;62.54
47280;BME280;34064;44.942;0.008;2023-04-01T06:44:20;98762.97;;;14.08;62.39
47280;BME280;34064;44.942;0.008;2023-04-01T06:47:15;98757.34;;;14.11;62.43
47280;BME280;34064;44.942;0.008;2023-04-01T06:49:51;98758.72;;;14.15;62.58
47280;BME280;34064;44.942;0.008;2023-04-01T06:57:48;98751.97;;;14.30;62.01
47280;BME280;34064;44.942;0.008;2023-04-01T07:05:25;98751.53;;;14.45;61.89
47280;BME280;34064;44.942;0.008;2023-04-01T07:07:59;98745.59;;;14.51;61.33
47280;BME280;34064;44.942;0.008;2023-04-01T07:13:20;98751.47;;;14.64;61.37
47280;BME280;34064;44.942;0.008;2023-04-01T07:16:18;98752.59;;;14.72;61.12
47280;BME280;34064;44.942;0.008;2023-04-01T07:19:44;98751.47;;;14.74;61.37
47280;BME280;34064;44.942;0.008;2023-04-01T07:24:40;98748.34;;;14.79;61.17
47280;BME280;34064;44.942;0.008;2023-04-01T07:27:13;98756.09;;;14.82;61.10
47280;BME280;34064;44.942;0.008;2023-04-01T07:29:40;98749.47;;;14.86;61.15
47280;BME280;34064;44.942;0.008;2023-04-01T07:32:32;98742.72;;;14.92;60.53
47280;BME280;34064;44.942;0.008;2023-04-01T07:44:20;98736.75;;;14.98;60.17
47280;BME280;34064;44.942;0.008;2023-04-01T07:46:43;98729.44;;;15.00;60.20
47280;BME280;34064;44.942;0.008;2023-04-01T07:55:41;98714.00;;;15.40;59.24
47280;BME280;34064;44.942;0.008;2023-04-01T08:01:17;98699.16;;;15.64;57.85
47280;BME280;34064;44.942;0.008;2023-04-01T08:06:20;98688.94;;;15.77;57.68
47280;BME280;34064;44.942;0.008;2023-04-01T08:09:06;98696.94;;;15.87;57.40
47280;BME280;34064;44.942;0.008;2023-04-01T08:12:02;98679.13;;;16.04;56.82
47280;BME280;34064;44.942;0.008;2023-04-01T08:14:52;98684.06;;;16.17;56.20
47280;BME280;34064;44.942;0.008;2023-04-01T08:22:49;98670.16;;;16.13;54.65
47280;BME280;34064;44.942;0.008;2023-04-01T08:25:28;98668.22;;;16.24;55.13
47280;BME280;34064;44.942;0.008;2023-04-01T08:28:09;98660.13;;;16.42;55.02
47280;BME280;34064;44.942;0.008;2023-04-01T08:30:58;98660.13;;;16.42;53.90
47280;BME280;34064;44.942;0.008;2023-04-01T08:33:29;98654.09;;;16.40;53.65
47280;BME280;34064;44.942;0.008;2023-04-01T08:36:25;98638.94;;;16.57;53.66
47280;BME280;34064;44.942;0.008;2023-04-01T08:39:02;98634.94;;;16.69;52.90
47280;BME280;34064;44.942;0.008;2023-04-01T08:42:04;98627.63;;;16.79;52.80
47280;BME280;34064;44.942;0.008;2023-04-01T08:50:22;98607.94;;;17.05;52.82
47280;BME280;34064;44.942;0.008;2023-04-01T08:56:14;98610.13;;;17.02;52.70
47280;BME280;34064;44.942;0.008;2023-04-01T08:59:05;98611.56;;;16.88;52.44
47280;BME280;34064;44.942;0.008;2023-04-01T09:07:39;98649.69;;;16.65;52.43
47280;BME280;34064;44.942;0.008;2023-04-01T09:18:20;98617.03;;;17.21;49.45
47280;BME280;34064;44.942;0.008;2023-04-01T09:21:17;98598.28;;;17.45;49.10
47280;BME280;34064;44.942;0.008;2023-04-01T09:30:01;98602.97;;;17.27;46.58
47280;BME280;34064;44.942;0.008;2023-04-01T09:35:48;98604.31;;;17.48;46.94
47280;BME280;34064;44.942;0.008;2023-04-01T09:43:49;98580.00;;;17.66;46.55
47280;BME280;34064;44.942;0.008;2023-04-01T09:54:56;98572.25;;;17.87;43.92
47280;BME280;34064;44.942;0.008;2023-04-01T10:03:29;98567.03;;;18.02;45.08
47280;BME280;34064;44.942;0.008;2023-04-01T10:09:11;98556.44;;;18.09;43.71
47280;BME280;34064;44.942;0.008;2023-04-01T10:12:13;98563.50;;;18.10;44.36
47280;BME280;34064;44.942;0.008;2023-04-01T10:15:13;98564.31;;;18.27;44.01
47280;BME280;34064;44.942;0.008;2023-04-01T11:24:53;98425.81;;;20.66;38.49
47280;BME280;34064;44.942;0.008;2023-04-01T11:34:15;98436.50;;;20.01;37.90
47280;BME280;34064;44.942;0.008;2023-04-01T11:40:02;98423.63;;;20.33;37.55
47280;BME280;34064;44.942;0.008;2023-04-01T12:10:44;98627.31;;;16.82;49.98
47280;BME280;34064;44.942;0.008;2023-04-01T12:13:37;98621.56;;;16.77;51.88
47280;BME280;34064;44.942;0.008;2023-04-01T12:19:17;98584.66;;;17.30;49.59
47280;BME280;34064;44.942;0.008;2023-04-01T12:33:18;98493.88;;;18.63;46.09
47280;BME280;34064;44.942;0.008;2023-04-01T12:36:07;98499.75;;;18.90;45.97
47280;BME280;34064;44.942;0.008;2023-04-01T12:41:44;98461.09;;;19.14;43.26
47280;BME280;34064;44.942;0.008;2023-04-01T12:52:25;98447.28;;;19.32;40.71
47280;BME280;34064;44.942;0.008;2023-04-01T13:00:48;98437.22;;;19.64;39.44
47280;BME280;34064;44.942;0.008;2023-04-01T13:03:36;98431.53;;;19.74;39.39
47280;BME280;34064;44.942;0.008;2023-04-01T13:09:07;98410.06;;;19.51;37.85
47280;BME280;34064;44.942;0.008;2023-04-01T13:17:03;98463.50;;;18.78;40.28
47280;BME280;34064;44.942;0.008;2023-04-01T13:25:39;98446.91;;;19.21;40.86
47280;BME280;34064;44.942;0.008;2023-04-01T13:31:28;98481.91;;;18.97;41.15
47280;BME280;34064;44.942;0.008;2023-04-01T13:34:32;98462.09;;;18.90;40.85
47280;BME280;34064;44.942;0.008;2023-04-01T13:39:56;98433.28;;;19.52;40.55
47280;BME280;34064;44.942;0.008;2023-04-01T13:42:26;98439.63;;;19.74;40.81
47280;BME280;34064;44.942;0.008;2023-04-01T13:45:17;98433.91;;;19.92;40.43
47280;BME280;34064;44.942;0.008;2023-04-01T13:51:02;98416.88;;;19.77;38.93
47280;BME280;34064;44.942;0.008;2023-04-01T13:56:38;98562.13;;;18.62;43.30
47280;BME280;34064;44.942;0.008;2023-04-01T14:07:49;98640.59;;;15.60;52.16
47280;BME280;34064;44.942;0.008;2023-04-01T14:10:40;98632.31;;;15.36;52.10
47280;BME280;34064;44.942;0.008;2023-04-01T14:13:37;98649.19;;;15.18;53.76
47280;BME280;34064;44.942;0.008;2023-04-01T14:18:57;98635.47;;;15.67;54.03
47280;BME280;34064;44.942;0.008;2023-04-01T14:36:32;98560.94;;;16.93;51.50
47280;BME280;34064;44.942;0.008;2023-04-01T14:48:28;98519.66;;;18.01;48.74
47280;BME280;34064;44.942;0.008;2023-04-01T14:56:51;98503.59;;;18.33;47.32
47280;BME280;34064;44.942;0.008;2023-04-01T14:59:29;98485.25;;;18.45;48.03
47280;BME280;34064;44.942;0.008;2023-04-01T15:04:53;98482.66;;;18.60;46.40
47280;BME280;34064;44.942;0.008;2023-04-01T15:16:12;98532.13;;;17.77;45.64
47280;BME280;34064;44.942;0.008;2023-04-01T15:19:36;98539.06;;;17.47;46.02
47280;BME280;34064;44.942;0.008;2023-04-01T15:24:26;98554.44;;;17.04;46.59
47280;BME280;34064;44.942;0.008;2023-04-01T15:30:00;98561.25;;;16.90;47.02
47280;BME280;34064;44.942;0.008;2023-04-01T15:35:34;98605.88;;;16.91;47.90
47280;BME280;34064;44.942;0.008;2023-04-01T15:38:08;98602.41;;;16.56;50.41
47280;BME280;34064;44.942;0.008;2023-04-01T15:40:50;98600.22;;;16.25;51.27
47280;BME280;34064;44.942;0.008;2023-04-01T15:52:19;98645.72;;;15.54;52.55
47280;BME280;34064;44.942;0.008;2023-04-01T16:14:36;98614.59;;;16.50;47.25
47280;BME280;34064;44.942;0.008;2023-04-01T16:17:15;98618.09;;;16.50;47.41
47280;BME280;34064;44.942;0.008;2023-04-01T16:19:53;98612.44;;;16.53;46.88
47280;BME280;34064;44.942;0.008;2023-04-01T16:25:43;98613.03;;;16.82;45.42
47280;BME280;34064;44.942;0.008;2023-04-01T16:31:38;98589.34;;;17.12;43.64
47280;BME280;34064;44.942;0.008;2023-04-01T16:37:10;98599.22;;;16.95;41.98
47280;BME280;34064;44.942;0.008;2023-04-01T16:42:48;98617.16;;;16.60;42.74
47280;BME280;34064;44.942;0.008;2023-04-01T16:48:44;98647.19;;;16.11;43.82
47280;BME280;34064;44.942;0.008;2023-04-01T16:51:09;98649.31;;;15.99;44.35
47280;BME280;34064;44.942;0.008;2023-04-01T16:53:49;98671.19;;;15.76;44.41
47280;BME280;34064;44.942;0.008;2023-04-01T16:56:27;98670.81;;;15.71;44.79
47280;BME280;34064;44.942;0.008;2023-04-01T16:59:04;98668.53;;;15.58;45.08
47280;BME280;34064;44.942;0.008;2023-04-01T17:07:25;98688.06;;;15.40;45.32
47280;BME280;34064;44.942;0.008;2023-04-01T17:21:16;98705.38;;;15.18;45.31
47280;BME280;34064;44.942;0.008;2023-04-01T17:23:52;98701.72;;;15.19;45.41
47280;BME280;34064;44.942;0.008;2023-04-01T17:32:09;98736.41;;;15.11;48.17
47280;BME280;34064;44.942;0.008;2023-04-01T17:35:02;98746.38;;;14.91;50.15
47280;BME280;34064;44.942;0.008;2023-04-01T17:40:54;98757.97;;;14.72;51.80
47280;BME280;34064;44.942;0.008;2023-04-01T17:43:58;98753.75;;;14.59;52.62
47280;BME280;34064;44.942;0.008;2023-04-01T17:57:25;98763.63;;;14.49;52.03
47280;BME280;34064;44.942;0.008;2023-04-01T18:02:32;98762.75;;;14.58;51.20
47280;BME280;34064;44.942;0.008;2023-04-01T18:08:33;98762.75;;;14.58;50.70
47280;BME280;34064;44.942;0.008;2023-04-01T18:25:01;98809.50;;;14.44;51.44
47280;BME280;34064;44.942;0.008;2023-04-01T18:27:38;98798.22;;;14.41;50.99
47280;BME280;34064;44.942;0.008;2023-04-01T18:30:26;98801.03;;;14.39;50.51
47280;BME280;34064;44.942;0.008;2023-04-01T18:35:51;98813.44;;;14.30;51.12
47280;BME280;34064;44.942;0.008;2023-04-01T18:38:33;98813.00;;;14.25;51.72
47280;BME280;34064;44.942;0.008;2023-04-01T18:43:51;98822.97;;;14.23;51.55
47280;BME280;34064;44.942;0.008;2023-04-01T18:46:40;98832.53;;;14.16;51.67
47280;BME280;34064;44.942;0.008;2023-04-01T18:57:54;98845.16;;;13.94;52.46
47280;BME280;34064;44.942;0.008;2023-04-01T19:01:19;98851.06;;;13.88;52.58
47280;BME280;34064;44.942;0.008;2023-04-01T19:06:21;98859.19;;;13.77;52.76
47280;BME280;34064;44.942;0.008;2023-04-01T19:08:49;98857.78;;;13.72;52.82
47280;BME280;34064;44.942;0.008;2023-04-01T19:11:36;98855.81;;;13.75;53.14
47280;BME280;34064;44.942;0.008;2023-04-01T19:19:34;98867.28;;;13.65;53.84
47280;BME280;34064;44.942;0.008;2023-04-01T19:28:06;98877.81;;;13.57;53.68
47280;BME280;34064;44.942;0.008;2023-04-01T19:30:50;98876.81;;;13.58;53.72
47280;BME280;34064;44.942;0.008;2023-04-01T19:34:39;98877.38;;;13.52;53.61
47280;BME280;34064;44.942;0.008;2023-04-01T19:42:21;98884.03;;;13.36;54.33
47280;BME280;34064;44.942;0.008;2023-04-01T19:50:08;98906.47;;;13.34;54.65
47280;BME280;34064;44.942;0.008;2023-04-01T19:52:43;98918.97;;;13.33;54.43
47280;BME280;34064;44.942;0.008;2023-04-01T19:55:53;98914.75;;;13.31;54.65
47280;BME280;34064;44.942;0.008;2023-04-01T20:01:50;98916.56;;;13.30;54.93
47280;BME280;34064;44.942;0.008;2023-04-01T20:04:44;98912.19;;;13.29;55.10
47280;BME280;34064;44.942;0.008;2023-04-01T20:07:31;98919.13;;;13.32;55.37
47280;BME280;34064;44.942;0.008;2023-04-01T20:10:08;98919.69;;;13.35;55.00
47280;BME280;34064;44.942;0.008;2023-04-01T20:15:36;98922.19;;;13.27;55.62
47280;BME280;34064;44.942;0.008;2023-04-01T20:18:47;98920.50;;;13.26;55.47
47280;BME280;34064;44.942;0.008;2023-04-01T20:23:52;98929.00;;;13.20;55.35
47280;BME280;34064;44.942;0.008;2023-04-01T20:26:36;98932.91;;;13.16;55.68
47280;BME280;34064;44.942;0.008;2023-04-01T20:31:55;98939.16;;;13.05;55.93
47280;BME280;34064;44.942;0.008;2023-04-01T20:37:33;98943.91;;;13.01;55.77
47280;BME280;34064;44.942;0.008;2023-04-01T20:40:35;98943.31;;;12.98;55.61
47280;BME280;34064;44.942;0.008;2023-04-01T20:46:11;98951.25;;;12.88;55.78
47280;BME280;34064;44.942;0.008;2023-04-01T20:51:31;98957.47;;;12.77;55.59
47280;BME280;34064;44.942;0.008;2023-04-01T20:54:19;98962.78;;;12.77;55.73
47280;BME280;34064;44.942;0.008;2023-04-01T20:57:14;98961.47;;;12.71;56.08
47280;BME280;34064;44.942;0.008;2023-04-01T21:02:32;98961.88;;;12.67;55.95
47280;BME280;34064;44.942;0.008;2023-04-01T21:05:19;98962.25;;;12.62;55.87
47280;BME280;34064;44.942;0.008;2023-04-01T21:08:17;98960.97;;;12.56;56.02
47280;BME280;34064;44.942;0.008;2023-04-01T21:19:03;98983.75;;;12.38;56.53
47280;BME280;34064;44.942;0.008;2023-04-01T21:21:50;98984.75;;;12.37;56.33
47280;BME280;34064;44.942;0.008;2023-04-01T21:27:36;98991.78;;;12.26;57.09
47280;BME280;34064;44.942;0.008;2023-04-01T21:35:45;99005.94;;;12.27;56.58
47280;BME280;34064;44.942;0.008;2023-04-01T21:38:30;99012.50;;;12.23;56.68
47280;BME280;34064;44.942;0.008;2023-04-01T21:49:37;99012.97;;;12.16;56.66
47280;BME280;34064;44.942;0.008;2023-04-01T22:06:11;99029.22;;;12.02;57.25
47280;BME280;34064;44.942;0.008;2023-04-01T22:11:37;99038.16;;;12.01;57.23
47280;BME280;34064;44.942;0.008;2023-04-01T22:14:20;99035.75;;;11.98;57.32
47280;BME280;34064;44.942;0.008;2023-04-01T22:25:19;99030.88;;;11.92;57.25
47280;BME280;34064;44.942;0.008;2023-04-01T22:30:32;99039.97;;;11.89;57.66
47280;BME280;34064;44.942;0.008;2023-04-01T22:33:16;99033.91;;;11.87;57.42
47280;BME280;34064;44.942;0.008;2023-04-01T22:36:17;99037.66;;;11.84;57.58
47280;BME280;34064;44.942;0.008;2023-04-01T22:42:10;99053.72;;;11.83;57.78
47280;BME280;34064;44.942;0.008;2023-04-01T22:50:35;99045.38;;;11.88;57.84
47280;BME280;34064;44.942;0.008;2023-04-01T22:53:27;99041.66;;;11.90;57.85
47280;BME280;34064;44.942;0.008;2023-04-01T22:56:03;99046.97;;;11.90;58.11
47280;BME280;34064;44.942;0.008;2023-04-01T22:58:33;99044.91;;;11.94;58.11
47280;BME280;34064;44.942;0.008;2023-04-01T23:01:14;99038.63;;;11.95;57.96
47280;BME280;34064;44.942;0.008;2023-04-01T23:03:45;99047.59;;;11.94;57.79
47280;BME280;34064;44.942;0.008;2023-04-01T23:06:31;99048.53;;;11.93;57.76
47280;BME280;34064;44.942;0.008;2023-04-01T23:09:12;99055.78;;;11.91;57.82
47280;BME280;34064;44.942;0.008;2023-04-01T23:15:18;99057.25;;;11.83;57.85
47280;BME280;34064;44.942;0.008;2023-04-01T23:18:02;99062.81;;;11.80;57.97
47280;BME280;34064;44.942;0.008;2023-04-01T23:21:03;99062.06;;;11.78;58.08
47280;BME280;34064;44.942;0.008;2023-04-01T23:23:57;99059.75;;;11.74;58.45
47280;BME280;34064;44.942;0.008;2023-04-01T23:29:30;99064.47;;;11.70;58.04
47280;BME280;34064;44.942;0.008;2023-04-01T23:32:05;99064.00;;;11.65;58.73
47280;BME280;34064;44.942;0.008;2023-04-01T23:34:35;99065.19;;;11.61;58.89
47280;BME280;34064;44.942;0.008;2023-04-01T23:37:05;99056.38;;;11.60;58.66
47280;BME280;34064;44.942;0.008;2023-04-01T23:39:36;99062.66;;;11.59;58.77
47280;BME280;34064;44.942;0.008;2023-04-01T23:42:19;99064.72;;;11.55;59.25
47280;BME280;34064;44.942;0.008;2023-04-01T23:44:49;99056.72;;;11.55;58.85
47280;BME280;34064;44.942;0.008;2023-04-01T23:47:20;99043.41;;;11.55;58.54